Time;durP1;ratioP1;P1;durP2;ratioP2;P2;SDS_P1;SDS_P2;PMS_P1;PMS_P2;Temp;Humidity;BMP_temperature;BMP_pressure;BME280_temperature;BME280_humidity;BME280_pressure;Samples;Min_cycle;Max_cycle;Signal;HPM_P1;HPM_P2
2021/09/30 00:01:34;;;;;;;7.70;3.08;;;9.00;99.90;;;;;;4115033;28;20050;-70
2021/09/30 00:03:34;;;;;;;6.60;2.72;;;8.90;99.90;;;;;;4114230;28;20042;-69
2021/09/30 00:05:37;;;;;;;6.80;3.42;;;8.80;99.90;;;;;;4126941;28;20050;-69
2021/09/30 00:07:39;;;;;;;4.43;2.80;;;8.80;99.90;;;;;;4114457;28;20109;-70
2021/09/30 00:09:44;;;;;;;5.13;3.15;;;8.70;99.90;;;;;;4114613;28;20528;-69
2021/09/30 00:11:48;;;;;;;13.80;3.80;;;8.70;99.90;;;;;;4114482;28;20062;-69
2021/09/30 00:14:06;;;;;;;6.22;3.20;;;8.70;99.90;;;;;;4116606;28;20058;-69
2021/09/30 00:34:34;;;;;;;7.72;3.60;;;8.50;99.90;;;;;;4113082;28;20078;-68
2021/09/30 00:41:22;;;;;;;11.32;3.92;;;8.50;99.90;;;;;;4121001;28;20404;-71
2021/09/30 00:45:45;;;;;;;11.48;4.20;;;8.50;99.90;;;;;;4118120;28;20593;-69
2021/09/30 00:52:13;;;;;;;16.00;3.80;;;8.50;99.90;;;;;;4117687;28;20038;-71
2021/09/30 00:54:28;;;;;;;7.53;3.13;;;8.60;99.90;;;;;;4109588;28;20039;-69
2021/09/30 01:40:26;;;;;;;14.25;4.88;;;8.10;99.90;;;;;;4121200;28;20117;-69
2021/09/30 02:18:10;;;;;;;15.82;6.60;;;8.30;99.90;;;;;;4113125;28;20092;-68
2021/09/30 02:18:35;;;;;;;10.75;6.68;;;8.10;99.90;;;;;;4129909;28;20603;-69
2021/09/30 02:21:09;;;;;;;18.23;7.60;;;8.10;99.90;;;;;;4117833;28;20398;-69
2021/09/30 03:00:08;;;;;;;15.40;6.35;;;8.10;99.90;;;;;;4115100;28;20045;-69
2021/09/30 03:02:09;;;;;;;10.07;5.63;;;8.10;99.90;;;;;;4116483;28;20395;-69
2021/09/30 03:04:12;;;;;;;15.55;5.28;;;8.10;99.90;;;;;;4114974;28;20027;-69
2021/09/30 03:06:14;;;;;;;12.07;5.10;;;8.10;99.90;;;;;;4128027;28;20038;-69
2021/09/30 03:08:15;;;;;;;20.92;7.05;;;8.20;99.90;;;;;;4115900;28;20046;-70
2021/09/30 03:10:18;;;;;;;14.07;5.43;;;8.10;99.90;;;;;;4098910;28;20035;-71
2021/09/30 03:12:30;;;;;;;8.32;4.65;;;8.10;99.90;;;;;;4127315;28;20035;-70
2021/09/30 03:14:38;;;;;;;14.98;5.90;;;8.10;99.90;;;;;;4130414;28;20073;-71
2021/09/30 03:16:45;;;;;;;13.23;5.03;;;8.00;99.90;;;;;;4116568;28;20476;-70
2021/09/30 03:18:51;;;;;;;14.38;6.20;;;8.00;99.90;;;;;;4130078;28;20449;-70
2021/09/30 03:23:18;;;;;;;13.43;5.07;;;8.00;99.90;;;;;;4128109;28;20046;-68
2021/09/30 03:25:19;;;;;;;10.93;5.65;;;8.00;99.90;;;;;;4145600;28;20085;-69
2021/09/30 03:27:21;;;;;;;14.63;6.03;;;8.00;99.90;;;;;;4116594;28;20038;-69
2021/09/30 03:29:22;;;;;;;12.98;5.53;;;8.00;99.90;;;;;;4115550;28;20513;-70
2021/09/30 03:31:24;;;;;;;13.85;5.65;;;8.00;99.90;;;;;;4130370;28;20469;-70
2021/09/30 03:33:26;;;;;;;14.75;5.30;;;7.90;99.90;;;;;;4129871;28;20038;-70
2021/09/30 03:35:26;;;;;;;14.57;5.28;;;8.00;99.90;;;;;;4115739;28;20043;-70
2021/09/30 03:37:28;;;;;;;11.10;4.85;;;7.90;99.90;;;;;;4100284;28;20517;-70
2021/09/30 03:39:29;;;;;;;21.00;6.72;;;7.90;99.90;;;;;;4114316;28;20482;-70
2021/09/30 03:41:30;;;;;;;12.55;4.50;;;8.00;99.90;;;;;;4115224;28;20093;-69
2021/09/30 03:43:31;;;;;;;13.48;5.05;;;8.00;99.90;;;;;;4101142;28;20035;-69
2021/09/30 03:45:33;;;;;;;13.75;4.80;;;7.90;99.90;;;;;;4110852;28;20035;-69
2021/09/30 03:47:34;;;;;;;18.17;4.85;;;8.00;99.90;;;;;;4119957;28;20502;-69
2021/09/30 03:49:35;;;;;;;17.33;4.55;;;8.00;99.90;;;;;;4109499;28;20114;-69
2021/09/30 03:53:56;;;;;;;23.45;6.10;;;8.10;99.90;;;;;;4125897;28;20121;-69
2021/09/30 04:00:22;;;;;;;16.20;5.22;;;8.00;99.90;;;;;;4120590;28;20085;-70
2021/09/30 04:02:23;;;;;;;9.98;4.22;;;7.90;99.90;;;;;;4115728;28;20413;-69
2021/09/30 04:04:28;;;;;;;19.17;4.97;;;7.90;99.90;;;;;;4107362;28;20039;-70
2021/09/30 04:06:29;;;;;;;13.88;4.28;;;7.90;99.90;;;;;;4120875;28;20042;-70
2021/09/30 04:08:30;;;;;;;15.35;4.57;;;7.90;99.90;;;;;;4112415;28;20101;-70
2021/09/30 04:10:31;;;;;;;10.85;6.28;;;7.90;99.90;;;;;;4114404;28;20050;-70
2021/09/30 04:12:32;;;;;;;13.98;5.03;;;7.80;99.90;;;;;;4115915;28;20035;-70
2021/09/30 04:14:33;;;;;;;11.80;4.78;;;7.80;99.90;;;;;;4114845;28;20045;-70
2021/09/30 04:16:34;;;;;;;16.15;5.40;;;7.80;99.90;;;;;;4115580;28;20426;-68
2021/09/30 04:18:35;;;;;;;20.17;5.40;;;7.80;99.90;;;;;;4109641;28;20039;-70
2021/09/30 04:20:36;;;;;;;14.18;5.22;;;7.70;99.90;;;;;;4104228;28;20043;-69
2021/09/30 04:22:36;;;;;;;14.73;5.57;;;7.70;99.90;;;;;;4114144;28;20050;-70
2021/09/30 04:24:39;;;;;;;22.35;6.28;;;7.70;99.90;;;;;;4115937;28;20035;-69
2021/09/30 04:26:41;;;;;;;20.25;5.05;;;7.70;99.90;;;;;;4113038;28;20027;-70
2021/09/30 04:28:42;;;;;;;13.80;4.50;;;7.90;99.90;;;;;;4113957;28;20049;-70
2021/09/30 04:30:42;;;;;;;14.82;5.30;;;8.00;99.90;;;;;;4085153;28;20035;-70
2021/09/30 04:32:43;;;;;;;20.85;4.97;;;7.90;99.90;;;;;;4109564;28;20491;-69
2021/09/30 04:34:44;;;;;;;15.18;5.00;;;7.90;99.90;;;;;;4109675;28;20035;-69
2021/09/30 04:36:46;;;;;;;12.23;4.78;;;7.90;99.90;;;;;;4113098;28;20126;-69
2021/09/30 04:38:49;;;;;;;16.95;5.40;;;7.90;99.90;;;;;;4127882;28;20113;-70
2021/09/30 04:40:50;;;;;;;6.53;4.70;;;7.90;99.90;;;;;;4124288;28;20410;-70
2021/09/30 04:42:51;;;;;;;16.63;5.93;;;7.80;99.90;;;;;;4127348;28;20055;-71
2021/09/30 04:44:52;;;;;;;12.25;5.05;;;7.80;99.90;;;;;;4112548;28;20042;-70
2021/09/30 04:46:53;;;;;;;23.15;5.75;;;7.80;99.90;;;;;;4114216;28;20043;-70
2021/09/30 04:48:54;;;;;;;11.60;6.72;;;7.90;99.90;;;;;;4102600;28;20083;-70
2021/09/30 04:50:54;;;;;;;17.20;5.25;;;7.90;99.90;;;;;;4106096;28;20478;-71
2021/09/30 04:53:00;;;;;;;12.15;5.20;;;7.80;99.90;;;;;;4107388;28;20039;-71
2021/09/30 04:55:01;;;;;;;15.93;5.68;;;7.90;99.90;;;;;;4111856;28;20043;-72
2021/09/30 04:57:01;;;;;;;11.52;5.30;;;8.00;99.90;;;;;;4125401;28;21693;-70
2021/09/30 04:59:03;;;;;;;15.30;5.75;;;7.90;99.90;;;;;;4111985;28;20102;-71
2021/09/30 05:01:04;;;;;;;15.93;5.20;;;7.80;99.90;;;;;;4109239;28;20035;-70
2021/09/30 05:03:05;;;;;;;20.60;5.93;;;7.70;99.90;;;;;;4104909;28;20399;-70
2021/09/30 05:05:07;;;;;;;21.00;5.93;;;7.80;99.90;;;;;;4100909;28;20150;-71
2021/09/30 05:07:08;;;;;;;14.23;5.97;;;7.70;99.90;;;;;;4117328;28;20198;-70
2021/09/30 05:09:08;;;;;;;23.83;6.45;;;7.70;99.90;;;;;;4105348;28;20076;-70
2021/09/30 05:11:09;;;;;;;18.42;7.55;;;7.70;99.90;;;;;;4111664;28;20105;-70
2021/09/30 05:13:16;;;;;;;12.02;5.85;;;7.60;99.90;;;;;;4105114;28;20058;-71
2021/09/30 05:15:16;;;;;;;13.68;5.55;;;7.50;99.90;;;;;;4103818;28;20073;-71
2021/09/30 05:17:17;;;;;;;11.63;4.72;;;7.50;99.90;;;;;;4121806;28;20035;-71
2021/09/30 05:19:19;;;;;;;12.20;5.60;;;7.70;99.90;;;;;;4100616;28;20066;-70
2021/09/30 05:21:20;;;;;;;23.88;5.93;;;7.80;99.90;;;;;;4119598;28;20039;-70
2021/09/30 05:23:22;;;;;;;11.80;5.47;;;7.90;99.90;;;;;;4084087;28;20125;-70
2021/09/30 05:25:24;;;;;;;15.77;6.50;;;7.90;99.90;;;;;;4117937;28;20030;-70
2021/09/30 05:27:25;;;;;;;13.50;6.07;;;7.90;99.90;;;;;;4099163;28;20154;-70
2021/09/30 05:29:25;;;;;;;15.13;5.78;;;7.90;99.90;;;;;;4098380;28;20043;-69
2021/09/30 05:31:28;;;;;;;12.77;7.10;;;7.80;99.90;;;;;;4123933;28;20034;-70
2021/09/30 05:33:29;;;;;;;17.40;6.85;;;7.70;99.90;;;;;;4127314;28;20039;-70
2021/09/30 05:35:30;;;;;;;15.55;5.38;;;7.80;99.90;;;;;;4103824;28;20539;-69
2021/09/30 05:37:31;;;;;;;19.90;5.97;;;7.90;99.90;;;;;;4113051;28;20031;-70
2021/09/30 05:39:32;;;;;;;15.88;5.85;;;7.90;99.90;;;;;;4114496;28;20120;-70
2021/09/30 05:41:33;;;;;;;26.63;6.00;;;7.80;99.90;;;;;;4113268;28;20045;-70
2021/09/30 05:43:36;;;;;;;10.93;5.80;;;7.80;99.90;;;;;;4126018;28;20047;-70
2021/09/30 05:45:42;;;;;;;19.45;5.78;;;7.80;99.90;;;;;;4128668;28;20037;-70
2021/09/30 05:47:44;;;;;;;13.20;4.97;;;7.80;99.90;;;;;;4107470;28;20032;-72
2021/09/30 05:49:45;;;;;;;17.80;6.00;;;7.90;99.90;;;;;;4129152;28;20470;-70
2021/09/30 05:51:46;;;;;;;12.15;6.75;;;7.90;99.90;;;;;;4112231;28;20338;-70
2021/09/30 05:53:47;;;;;;;23.88;8.10;;;7.80;99.90;;;;;;4113547;28;20039;-70
2021/09/30 05:55:48;;;;;;;22.05;5.70;;;7.70;99.90;;;;;;4112296;28;20502;-70
2021/09/30 05:57:49;;;;;;;19.88;6.43;;;7.70;99.90;;;;;;4112122;28;20062;-70
2021/09/30 05:59:50;;;;;;;16.45;5.85;;;7.70;99.90;;;;;;4116056;28;20502;-70
2021/09/30 06:10:52;;;;;;;17.25;5.38;;;8.00;99.90;;;;;;4107470;28;20090;-70
2021/09/30 06:12:57;;;;;;;17.58;7.18;;;8.10;99.90;;;;;;4115853;28;20050;-70
2021/09/30 06:14:59;;;;;;;16.88;8.18;;;8.10;99.90;;;;;;4112598;28;20125;-69
2021/09/30 06:17:01;;;;;;;15.32;6.78;;;8.10;99.90;;;;;;4110456;28;20394;-70
2021/09/30 06:19:03;;;;;;;18.27;7.97;;;8.10;99.90;;;;;;4124772;28;20510;-70
2021/09/30 06:21:04;;;;;;;18.25;7.18;;;8.10;99.90;;;;;;4119632;28;20126;-71
2021/09/30 06:23:05;;;;;;;13.73;8.23;;;8.20;99.90;;;;;;4108965;28;20097;-71
2021/09/30 06:25:07;;;;;;;27.95;8.00;;;8.20;99.90;;;;;;4110965;28;20133;-70
2021/09/30 06:27:08;;;;;;;18.58;7.15;;;8.20;99.90;;;;;;4110196;28;20026;-70
2021/09/30 06:29:09;;;;;;;16.13;6.70;;;8.20;99.90;;;;;;4110419;28;20427;-71
2021/09/30 06:31:10;;;;;;;15.10;7.38;;;8.20;99.90;;;;;;4108279;28;20491;-70
2021/09/30 06:33:11;;;;;;;13.30;7.45;;;8.20;99.90;;;;;;4122246;28;20137;-69
2021/09/30 06:35:12;;;;;;;19.00;7.50;;;8.20;99.90;;;;;;4125085;28;20030;-70
2021/09/30 06:37:13;;;;;;;22.60;7.50;;;8.20;99.90;;;;;;4110828;28;20129;-72
2021/09/30 06:39:13;;;;;;;22.85;7.70;;;8.10;99.90;;;;;;4109554;28;20106;-69
2021/09/30 06:41:14;;;;;;;18.98;7.38;;;8.20;99.90;;;;;;4111240;28;20049;-70
2021/09/30 06:43:15;;;;;;;16.42;7.30;;;8.20;99.90;;;;;;4110101;28;20056;-71
2021/09/30 06:45:16;;;;;;;17.63;7.85;;;8.20;99.90;;;;;;4110994;28;20077;-70
2021/09/30 06:47:17;;;;;;;27.42;8.45;;;8.30;99.90;;;;;;4109059;28;20085;-70
2021/09/30 06:49:17;;;;;;;14.70;8.60;;;8.30;99.90;;;;;;4100523;28;20043;-70
2021/09/30 06:51:19;;;;;;;25.02;8.63;;;8.30;99.90;;;;;;4120061;28;20034;-68
2021/09/30 06:53:20;;;;;;;16.38;8.23;;;8.30;99.90;;;;;;4118894;28;20031;-70
2021/09/30 06:55:20;;;;;;;15.77;7.20;;;8.40;99.90;;;;;;4107086;28;20658;-72
2021/09/30 06:57:21;;;;;;;22.13;7.80;;;8.50;99.90;;;;;;4111884;28;20058;-71
2021/09/30 06:59:24;;;;;;;17.02;6.97;;;8.60;99.90;;;;;;4108819;28;20453;-71
2021/09/30 07:01:25;;;;;;;14.95;8.25;;;8.70;99.90;;;;;;4107450;28;20462;-68
2021/09/30 07:03:28;;;;;;;14.30;7.28;;;8.80;99.90;;;;;;4104891;28;20027;-68
2021/09/30 07:05:28;;;;;;;16.50;6.87;;;8.90;99.90;;;;;;4125445;28;20169;-70
2021/09/30 07:07:29;;;;;;;14.43;6.05;;;9.00;99.90;;;;;;4115066;28;20278;-71
2021/09/30 07:09:30;;;;;;;15.40;5.50;;;9.10;99.90;;;;;;4098363;28;20170;-70
2021/09/30 07:11:32;;;;;;;15.90;7.28;;;9.30;99.90;;;;;;4114075;28;20498;-70
2021/09/30 07:13:33;;;;;;;15.55;6.18;;;9.40;99.90;;;;;;4114223;28;20470;-69
2021/09/30 07:15:34;;;;;;;22.83;7.30;;;9.50;99.90;;;;;;4114688;28;20034;-70
2021/09/30 07:17:34;;;;;;;10.23;5.85;;;9.50;99.90;;;;;;4113277;28;20042;-71
2021/09/30 07:19:36;;;;;;;18.98;6.65;;;9.50;99.90;;;;;;4115641;28;20042;-71
2021/09/30 07:21:37;;;;;;;17.35;6.60;;;9.60;99.90;;;;;;4115897;28;20486;-70
2021/09/30 07:23:37;;;;;;;15.10;6.55;;;9.70;99.90;;;;;;4099368;28;20090;-70
2021/09/30 07:25:39;;;;;;;14.50;6.90;;;9.80;99.90;;;;;;4113984;28;20062;-70
2021/09/30 07:27:40;;;;;;;17.67;7.55;;;9.70;99.90;;;;;;4116420;28;20038;-71
2021/09/30 07:29:40;;;;;;;14.88;6.13;;;9.80;99.90;;;;;;4126522;28;20058;-70
2021/09/30 07:31:41;;;;;;;16.48;6.72;;;9.70;99.90;;;;;;4100184;28;20046;-70
2021/09/30 07:33:42;;;;;;;15.07;5.97;;;9.60;99.90;;;;;;4115504;28;20162;-69
2021/09/30 07:35:43;;;;;;;10.02;6.07;;;9.50;99.90;;;;;;4131389;28;20141;-70
2021/09/30 07:37:45;;;;;;;15.20;6.47;;;9.50;99.90;;;;;;4114845;28;20498;-69
2021/09/30 07:39:46;;;;;;;11.32;6.13;;;9.60;99.90;;;;;;4128759;28;20104;-71
2021/09/30 07:41:47;;;;;;;8.55;5.55;;;9.70;99.90;;;;;;4095699;28;20122;-70
2021/09/30 07:43:48;;;;;;;14.18;6.45;;;9.80;99.90;;;;;;4115716;28;20094;-71
2021/09/30 07:45:50;;;;;;;19.98;7.22;;;9.80;99.90;;;;;;4129729;28;20042;-69
2021/09/30 07:47:50;;;;;;;15.07;7.00;;;9.90;99.90;;;;;;4130487;28;20491;-69
2021/09/30 07:49:51;;;;;;;15.32;6.60;;;10.00;99.90;;;;;;4100952;28;20186;-70
2021/09/30 07:51:52;;;;;;;11.80;6.30;;;10.10;99.90;;;;;;4125659;28;20453;-70
2021/09/30 07:53:53;;;;;;;14.13;7.68;;;10.20;99.90;;;;;;4114414;28;20042;-69
2021/09/30 07:55:54;;;;;;;12.95;6.07;;;10.30;99.90;;;;;;4114743;28;20479;-69
2021/09/30 07:57:55;;;;;;;13.23;6.88;;;10.40;99.90;;;;;;4116500;28;20457;-70
2021/09/30 07:59:55;;;;;;;14.57;6.60;;;10.50;99.90;;;;;;4126272;28;20070;-70
2021/09/30 08:01:56;;;;;;;23.52;7.00;;;10.60;99.90;;;;;;4113803;28;20023;-70
2021/09/30 08:04:01;;;;;;;12.50;6.00;;;10.70;99.90;;;;;;4130368;28;20042;-70
2021/09/30 08:06:02;;;;;;;14.52;5.65;;;10.70;99.90;;;;;;4114226;28;20042;-70
2021/09/30 08:08:08;;;;;;;17.83;6.55;;;10.70;99.90;;;;;;4126503;28;20042;-70
2021/09/30 08:10:09;;;;;;;9.43;5.40;;;10.80;99.90;;;;;;4114452;28;20035;-70
2021/09/30 08:12:10;;;;;;;13.38;6.07;;;10.80;99.90;;;;;;4114201;28;20105;-70
2021/09/30 08:14:11;;;;;;;9.63;5.03;;;10.80;99.90;;;;;;4107469;28;20038;-71
2021/09/30 08:16:13;;;;;;;16.08;6.65;;;10.80;99.90;;;;;;4110496;28;20046;-72
2021/09/30 08:18:14;;;;;;;15.52;5.93;;;11.00;99.90;;;;;;4111842;28;20106;-71
2021/09/30 08:20:15;;;;;;;8.90;4.90;;;11.10;99.90;;;;;;4129626;28;20058;-70
2021/09/30 08:22:16;;;;;;;17.80;5.65;;;11.30;99.90;;;;;;4119816;28;20581;-71
2021/09/30 08:24:19;;;;;;;13.05;5.32;;;11.50;99.90;;;;;;4114948;28;20054;-71
2021/09/30 08:26:23;;;;;;;13.55;6.93;;;11.60;99.90;;;;;;4124038;28;20043;-71
2021/09/30 08:28:24;;;;;;;10.50;5.07;;;11.80;99.90;;;;;;4105919;28;20180;-69
2021/09/30 08:30:25;;;;;;;13.98;4.63;;;11.90;99.90;;;;;;4113761;28;20034;-70
2021/09/30 08:32:25;;;;;;;17.23;6.20;;;12.10;99.90;;;;;;4099169;28;20521;-70
2021/09/30 08:34:26;;;;;;;13.60;5.10;;;12.30;99.90;;;;;;4127420;28;20030;-70
2021/09/30 08:36:27;;;;;;;18.77;5.72;;;12.30;99.90;;;;;;4100618;28;20446;-70
2021/09/30 08:38:27;;;;;;;12.85;5.40;;;12.40;99.90;;;;;;4095414;28;20031;-70
2021/09/30 08:40:28;;;;;;;10.88;4.28;;;12.40;99.90;;;;;;4107747;28;20089;-70
2021/09/30 08:42:29;;;;;;;7.47;4.10;;;12.50;99.90;;;;;;4129489;28;20375;-71
2021/09/30 08:44:33;;;;;;;11.48;4.80;;;12.60;99.90;;;;;;4110010;28;20054;-70
2021/09/30 08:46:35;;;;;;;13.30;5.22;;;12.70;99.90;;;;;;4102910;28;20066;-69
2021/09/30 08:48:36;;;;;;;7.47;4.85;;;12.80;99.90;;;;;;4103043;28;20039;-70
2021/09/30 08:50:40;;;;;;;11.05;4.50;;;12.70;99.90;;;;;;4120304;28;20096;-70
2021/09/30 08:52:41;;;;;;;9.57;5.13;;;12.80;99.90;;;;;;4113229;28;20121;-70
2021/09/30 08:54:42;;;;;;;9.65;4.47;;;12.90;99.90;;;;;;4115486;28;20066;-69
2021/09/30 08:56:43;;;;;;;10.30;5.20;;;12.90;99.90;;;;;;4123678;28;20034;-70
2021/09/30 08:58:44;;;;;;;15.05;5.03;;;13.00;99.90;;;;;;4118604;28;20038;-71
2021/09/30 09:00:45;;;;;;;13.52;4.85;;;13.00;99.90;;;;;;4104199;28;20095;-70
2021/09/30 09:02:48;;;;;;;13.07;4.47;;;13.20;99.90;;;;;;4088267;28;20043;-70
2021/09/30 09:04:57;;;;;;;;;;;13.30;99.90;;;;;;4118948;28;20103;-72
2021/09/30 09:07:07;;;;;;;11.88;4.75;;;13.30;99.90;;;;;;4097397;28;19922;-71
2021/09/30 09:09:25;;;;;;;11.10;5.32;;;13.40;99.90;;;;;;4099050;28;20474;-71
2021/09/30 09:11:26;;;;;;;11.35;6.63;;;13.50;99.90;;;;;;4110503;28;20038;-71
2021/09/30 09:13:28;;;;;;;9.20;3.85;;;13.50;99.90;;;;;;4111226;28;20069;-71
2021/09/30 09:15:40;;;;;;;9.15;3.65;;;13.70;99.90;;;;;;4125144;28;20038;-71
2021/09/30 09:17:49;;;;;;;9.57;4.82;;;13.80;99.90;;;;;;4111182;28;20043;-72
2021/09/30 09:20:01;;;;;;;9.90;4.82;;;13.90;99.90;;;;;;4106495;28;20076;-73
2021/09/30 09:22:17;;;;;;;10.13;4.72;;;14.10;99.90;;;;;;4104118;28;20766;-70
2021/09/30 09:24:18;;;;;;;10.82;4.03;;;14.40;99.90;;;;;;4111851;28;20046;-71
2021/09/30 09:26:23;;;;;;;10.10;5.00;;;14.60;99.90;;;;;;4127415;28;20521;-70
2021/09/30 09:28:24;;;;;;;9.60;3.83;;;14.90;99.90;;;;;;4126304;28;20161;-70
2021/09/30 09:30:47;;;;;;;17.00;4.93;;;15.30;99.90;;;;;;4096285;28;20126;-70
2021/09/30 09:33:11;;;;;;;8.73;4.28;;;15.50;99.90;;;;;;4109543;28;20074;-71
2021/09/30 09:35:13;;;;;;;9.60;4.93;;;15.70;99.90;;;;;;4104190;28;20380;-71
2021/09/30 09:37:38;;;;;;;12.57;4.40;;;15.80;99.90;;;;;;4106665;28;20042;-70
2021/09/30 09:39:39;;;;;;;13.63;3.47;;;15.80;99.90;;;;;;4103144;28;20033;-70
2021/09/30 09:41:40;;;;;;;11.32;3.72;;;15.90;99.90;;;;;;4111832;28;20062;-70
2021/09/30 09:43:44;;;;;;;6.47;3.25;;;15.80;99.90;;;;;;4122016;28;20035;-69
2021/09/30 09:45:47;;;;;;;13.38;6.70;;;15.80;99.90;;;;;;4127981;28;20027;-69
2021/09/30 09:47:47;;;;;;;8.02;3.33;;;15.80;99.90;;;;;;4121438;28;20487;-70
2021/09/30 09:50:29;;;;;;;8.07;3.97;;;16.00;99.90;;;;;;4096392;28;20058;-70
2021/09/30 09:52:30;;;;;;;10.38;3.65;;;16.10;99.90;;;;;;4128906;28;20038;-70
2021/09/30 09:54:32;;;;;;;11.65;5.40;;;16.40;99.90;;;;;;4127668;28;20092;-71
2021/09/30 09:56:33;;;;;;;12.27;3.72;;;16.30;99.90;;;;;;4095715;28;20039;-69
2021/09/30 09:58:45;;;;;;;5.47;2.90;;;16.10;99.90;;;;;;4108933;28;20050;-69
2021/09/30 10:00:49;;;;;;;9.73;4.38;;;16.00;99.90;;;;;;4100578;28;20035;-71
2021/09/30 10:02:51;;;;;;;10.07;4.47;;;16.10;99.90;;;;;;4105683;28;20461;-69
2021/09/30 10:04:52;;;;;;;8.85;3.88;;;16.20;99.90;;;;;;4095612;28;20419;-70
2021/09/30 10:06:53;;;;;;;9.32;3.83;;;16.30;99.90;;;;;;4110522;28;20066;-70
2021/09/30 10:08:54;;;;;;;7.55;3.70;;;16.30;99.90;;;;;;4111174;28;20054;-69
2021/09/30 10:10:57;;;;;;;16.30;4.28;;;16.40;99.90;;;;;;4096709;28;20043;-70
2021/09/30 10:12:57;;;;;;;7.80;3.67;;;16.50;99.90;;;;;;4102791;28;20077;-69
2021/09/30 10:14:58;;;;;;;12.25;5.20;;;16.60;99.90;;;;;;4124054;28;20046;-70
2021/09/30 10:16:59;;;;;;;6.70;3.55;;;16.60;99.90;;;;;;4100263;28;20038;-70
2021/09/30 10:19:07;;;;;;;11.38;3.10;;;16.60;99.90;;;;;;4118525;28;20039;-71
2021/09/30 10:21:08;;;;;;;8.88;3.38;;;16.70;99.90;;;;;;4105630;28;20044;-71
2021/09/30 10:23:11;;;;;;;15.02;4.18;;;16.80;99.90;;;;;;4111793;28;20462;-71
2021/09/30 10:25:11;;;;;;;11.55;4.28;;;17.20;99.90;;;;;;4108833;28;20045;-69
2021/09/30 10:27:12;;;;;;;6.68;2.88;;;17.30;99.90;;;;;;4118816;28;20390;-70
2021/09/30 10:29:45;;;;;;;13.07;3.55;;;17.10;99.90;;;;;;4125123;28;20381;-70
2021/09/30 10:31:56;;;;;;;5.18;3.13;;;17.00;99.90;;;;;;4127125;28;20156;-71
2021/09/30 10:34:01;;;;;;;11.15;3.97;;;16.70;99.90;;;;;;4110732;28;20535;-71
2021/09/30 10:36:02;;;;;;;7.47;3.92;;;16.50;99.90;;;;;;4123128;28;20047;-71
2021/09/30 10:38:30;;;;;;;6.43;3.20;;;16.30;99.90;;;;;;4100977;28;20051;-72
2021/09/30 10:40:31;;;;;;;8.60;3.67;;;16.30;99.90;;;;;;4111274;28;20042;-70
2021/09/30 10:42:58;;;;;;;8.23;4.18;;;16.30;99.90;;;;;;4114522;28;20050;-72
2021/09/30 10:45:14;;;;;;;9.82;3.47;;;16.40;99.90;;;;;;4111675;28;20443;-71
2021/09/30 10:47:20;;;;;;;11.90;3.70;;;16.60;99.90;;;;;;4099183;28;20031;-71
2021/09/30 10:49:36;;;;;;;6.90;3.10;;;16.80;99.90;;;;;;4115600;28;20125;-70
2021/09/30 10:51:37;;;;;;;7.85;3.72;;;16.80;99.90;;;;;;4115363;28;20047;-70
2021/09/30 10:53:46;;;;;;;7.47;3.15;;;16.70;99.90;;;;;;4130551;28;20030;-70
2021/09/30 10:55:47;;;;;;;6.20;2.58;;;16.90;99.90;;;;;;4115719;28;20066;-71
2021/09/30 10:57:54;;;;;;;7.07;3.22;;;17.60;99.90;;;;;;4132160;28;20033;-72
2021/09/30 10:59:55;;;;;;;12.30;4.05;;;17.90;99.90;;;;;;4112984;28;20088;-71
2021/09/30 11:01:56;;;;;;;7.57;2.88;;;17.90;99.90;;;;;;4126770;28;20034;-71
2021/09/30 11:04:02;;;;;;;8.02;3.20;;;17.50;99.90;;;;;;4115435;28;20047;-70
2021/09/30 11:06:06;;;;;;;10.35;3.38;;;17.10;99.90;;;;;;4105986;28;20087;-71
2021/09/30 11:08:27;;;;;;;4.43;2.92;;;17.10;99.90;;;;;;4105970;28;20398;-70
2021/09/30 11:10:28;;;;;;;7.00;2.67;;;17.10;99.90;;;;;;4099708;28;20034;-71
2021/09/30 11:12:29;;;;;;;11.32;3.10;;;17.10;99.90;;;;;;4097467;28;20135;-70
2021/09/30 11:14:29;;;;;;;9.13;3.75;;;17.10;99.90;;;;;;4114002;28;20035;-71
2021/09/30 11:16:53;;;;;;;10.10;3.38;;;17.10;99.90;;;;;;4113505;28;20035;-71
2021/09/30 11:18:58;;;;;;;11.48;3.30;;;16.80;99.90;;;;;;4106603;28;20357;-72
2021/09/30 11:20:59;;;;;;;8.65;3.20;;;16.60;99.90;;;;;;4106211;28;20082;-70
2021/09/30 11:23:00;;;;;;;5.93;3.75;;;16.50;99.90;;;;;;4115314;28;20046;-71
2021/09/30 11:25:01;;;;;;;12.25;4.10;;;16.30;99.90;;;;;;4113384;28;20038;-72
2021/09/30 11:27:06;;;;;;;9.23;3.97;;;16.10;99.90;;;;;;4127854;28;20035;-70
2021/09/30 11:29:27;;;;;;;7.38;3.22;;;16.10;99.90;;;;;;4112823;28;20027;-71
2021/09/30 11:31:31;;;;;;;9.95;3.75;;;16.20;99.90;;;;;;4115750;28;20432;-70
2021/09/30 11:33:33;;;;;;;6.57;2.97;;;16.20;99.90;;;;;;4112506;28;20062;-72
2021/09/30 11:35:35;;;;;;;9.25;3.55;;;16.30;99.90;;;;;;4129188;28;20069;-71
2021/09/30 11:37:42;;;;;;;10.87;3.77;;;16.30;99.90;;;;;;4112197;28;20049;-71
2021/09/30 11:39:49;;;;;;;8.52;3.38;;;16.30;99.90;;;;;;4113066;28;20294;-71
2021/09/30 11:41:51;;;;;;;11.88;3.58;;;16.40;99.90;;;;;;4112516;28;20322;-72
2021/09/30 11:43:52;;;;;;;7.47;3.72;;;16.40;99.90;;;;;;4111561;28;20049;-71
2021/09/30 11:45:52;;;;;;;8.07;3.50;;;16.40;99.90;;;;;;4127263;28;20305;-71
2021/09/30 11:48:06;;;;;;;9.20;3.03;;;16.50;99.90;;;;;;4109839;28;20039;-71
2021/09/30 11:50:26;;;;;;;8.73;3.30;;;16.90;99.90;;;;;;4097508;28;20046;-72
2021/09/30 11:52:27;;;;;;;12.63;3.22;;;17.40;99.90;;;;;;4113230;28;20517;-69
2021/09/30 11:54:35;;;;;;;10.18;4.15;;;17.30;99.90;;;;;;4113981;28;20142;-70
2021/09/30 11:56:49;;;;;;;9.35;3.30;;;17.10;99.90;;;;;;4114246;28;20374;-70
2021/09/30 11:59:05;;;;;;;6.30;2.90;;;16.80;99.90;;;;;;4100174;28;20113;-69
2021/09/30 12:01:06;;;;;;;8.70;3.50;;;16.70;99.90;;;;;;4094968;28;20047;-69
2021/09/30 12:03:07;;;;;;;6.30;3.00;;;16.60;99.90;;;;;;4109511;28;20046;-70
2021/09/30 12:05:16;;;;;;;6.95;2.92;;;16.30;99.90;;;;;;4113468;28;20077;-70
2021/09/30 12:07:26;;;;;;;7.22;3.53;;;16.30;99.90;;;;;;4108088;28;20536;-71
2021/09/30 12:09:32;;;;;;;5.60;2.97;;;16.30;99.90;;;;;;4119625;28;20176;-71
2021/09/30 12:11:35;;;;;;;7.80;2.83;;;16.20;99.90;;;;;;4113857;28;20066;-71
2021/09/30 12:13:39;;;;;;;12.60;4.30;;;16.20;99.90;;;;;;4114308;28;20070;-71
2021/09/30 12:15:39;;;;;;;9.68;2.78;;;16.10;99.90;;;;;;4102289;28;20439;-72
2021/09/30 12:17:42;;;;;;;11.25;3.40;;;16.10;99.90;;;;;;4116143;28;20045;-72
2021/09/30 12:19:47;;;;;;;6.63;2.63;;;15.90;99.90;;;;;;4128153;28;20433;-70
2021/09/30 12:21:48;;;;;;;5.47;2.50;;;15.80;99.90;;;;;;4114189;28;20047;-71
2021/09/30 12:23:55;;;;;;;9.40;2.75;;;15.90;99.90;;;;;;4105130;28;20043;-71
2021/09/30 12:25:56;;;;;;;6.60;2.70;;;15.90;99.90;;;;;;4096773;28;20035;-72
2021/09/30 12:27:58;;;;;;;7.38;2.83;;;15.60;99.90;;;;;;4096888;28;20713;-71
2021/09/30 12:30:12;;;;;;;13.10;4.07;;;15.70;99.90;;;;;;4113182;28;20093;-71
2021/09/30 12:32:18;;;;;;;5.55;2.25;;;15.80;99.90;;;;;;4103620;28;20054;-71
2021/09/30 12:34:25;;;;;;;10.30;3.08;;;15.50;99.90;;;;;;4129472;28;20030;-71
2021/09/30 12:36:26;;;;;;;5.85;2.55;;;15.70;99.90;;;;;;4112691;28;20053;-71
2021/09/30 12:38:27;;;;;;;13.23;3.38;;;15.80;99.90;;;;;;4121280;28;20034;-71
2021/09/30 12:40:44;;;;;;;6.88;2.30;;;15.80;99.90;;;;;;4098637;28;20091;-71
2021/09/30 12:43:06;;;;;;;6.70;3.13;;;15.80;99.90;;;;;;4099039;28;20391;-69
2021/09/30 12:45:15;;;;;;;4.55;2.38;;;16.00;99.90;;;;;;4109517;28;20483;-71
2021/09/30 12:47:42;;;;;;;7.43;3.40;;;16.00;99.90;;;;;;4118623;28;20034;-71
2021/09/30 12:50:08;;;;;;;6.03;2.83;;;16.00;99.90;;;;;;4127444;28;20038;-71
2021/09/30 12:52:19;;;;;;;8.27;2.90;;;16.20;99.90;;;;;;4123832;28;20038;-70
2021/09/30 12:54:27;;;;;;;6.35;2.78;;;16.40;99.90;;;;;;4114555;28;20105;-71
2021/09/30 12:56:31;;;;;;;7.82;2.85;;;16.60;99.90;;;;;;4112599;28;20367;-70
2021/09/30 12:58:36;;;;;;;6.88;2.70;;;16.50;99.90;;;;;;4111787;28;20599;-71
2021/09/30 13:00:37;;;;;;;8.88;2.25;;;16.40;99.90;;;;;;4103814;28;20084;-70
2021/09/30 13:02:40;;;;;;;8.98;2.67;;;16.30;99.90;;;;;;4105059;28;20038;-72
2021/09/30 13:05:01;;;;;;;7.87;2.63;;;16.10;99.90;;;;;;4083979;28;20654;-70
2021/09/30 13:07:05;;;;;;;8.15;2.75;;;16.00;99.90;;;;;;4108560;28;20275;-71
2021/09/30 13:09:18;;;;;;;4.30;2.63;;;16.00;99.90;;;;;;4101831;28;20486;-71
2021/09/30 13:11:33;;;;;;;8.18;2.72;;;16.00;99.90;;;;;;4095335;28;20517;-70
2021/09/30 13:13:34;;;;;;;7.90;2.42;;;16.00;99.90;;;;;;4109197;28;20573;-71
2021/09/30 13:15:43;;;;;;;5.65;2.60;;;15.80;99.90;;;;;;4109016;28;20157;-71
2021/09/30 13:18:00;;;;;;;7.93;3.72;;;15.80;99.90;;;;;;4122352;28;20522;-71
2021/09/30 13:20:08;;;;;;;5.63;2.30;;;15.80;99.90;;;;;;4110849;28;20391;-71
2021/09/30 13:22:11;;;;;;;6.75;2.45;;;15.60;99.90;;;;;;4110464;28;20134;-70
2021/09/30 13:24:12;;;;;;;;;;;15.60;99.90;;;;;;4119746;28;20030;-70
2021/09/30 13:26:13;;;;;;;5.03;2.25;;;15.60;99.90;;;;;;4108443;28;19960;-71
2021/09/30 13:28:13;;;;;;;5.68;2.50;;;15.50;99.90;;;;;;4113547;28;20041;-69